Time;durP1;ratioP1;P1;durP2;ratioP2;P2;SDS_P1;SDS_P2;PMS_P1;PMS_P2;Temp;Humidity;BMP_temperature;BMP_pressure;BME280_temperature;BME280_humidity;BME280_pressure;Samples;Min_cycle;Max_cycle;Signal;HPM_P1;HPM_P2
2022/08/06 00:01:35;;;;;;;4.47;1.67;;;;;;;14.18;67.76;101128.97;5134947;27;20035;-81
2022/08/06 00:04:01;;;;;;;4.17;1.13;;;;;;;14.06;68.05;101135.16;5134279;27;20641;-81
2022/08/06 00:06:26;;;;;;;;;;;;;;;14.06;68.20;101126.13;5133799;27;20476;-81
2022/08/06 00:08:52;;;;;;;3.78;1.48;;;;;;;14.05;67.78;101133.56;5135034;27;19907;-81
2022/08/06 00:11:17;;;;;;;3.40;1.33;;;;;;;14.04;68.38;101129.22;5135504;27;20027;-79
2022/08/06 00:13:46;;;;;;;3.92;1.20;;;;;;;14.02;68.53;101142.44;5135584;27;20043;-81
2022/08/06 00:16:11;;;;;;;3.95;1.48;;;;;;;14.04;68.29;101137.44;5140918;27;20061;-81
2022/08/06 00:18:36;;;;;;;3.43;1.40;;;;;;;14.01;68.49;101149.06;5139806;27;20437;-82
2022/08/06 00:21:01;;;;;;;;;;;;;;;14.02;68.30;101147.91;5145827;27;20027;-81
2022/08/06 00:23:27;;;;;;;3.38;1.27;;;;;;;14.06;68.23;101143.38;5152083;27;19911;-82
2022/08/06 00:25:53;;;;;;;7.87;2.20;;;;;;;14.09;68.47;101145.44;5153086;27;20087;-82
2022/08/06 00:28:21;;;;;;;4.50;1.42;;;;;;;14.04;67.87;101150.31;5150658;27;20267;-82
2022/08/06 00:30:46;;;;;;;3.70;1.40;;;;;;;14.01;68.59;101154.53;5137283;27;20091;-82
2022/08/06 00:33:12;;;;;;;5.43;1.80;;;;;;;13.98;68.10;101160.69;5145286;27;20024;-82
2022/08/06 00:35:37;;;;;;;;;;;;;;;13.91;68.38;101160.38;5139641;27;20457;-81
2022/08/06 00:38:02;;;;;;;4.17;1.63;;;;;;;13.96;68.57;101160.22;5139271;27;19907;-81
2022/08/06 00:40:29;;;;;;;6.00;2.60;;;;;;;13.88;68.16;101166.53;5140026;27;20746;-82
2022/08/06 00:42:55;;;;;;;6.55;2.08;;;;;;;13.90;68.55;101160.72;5141484;27;20080;-82
2022/08/06 00:45:21;;;;;;;4.32;1.90;;;;;;;13.83;68.23;101164.00;5140348;27;20046;-82
2022/08/06 00:47:46;;;;;;;5.20;2.25;;;;;;;13.70;69.34;101168.56;5140572;27;20023;-83
2022/08/06 00:50:11;;;;;;;4.17;1.87;;;;;;;13.73;68.96;101165.16;5139043;27;20106;-82
2022/08/06 00:52:36;;;;;;;;;;;;;;;13.68;69.08;101175.50;5141133;27;20034;-82
2022/08/06 00:55:02;;;;;;;6.77;2.17;;;;;;;13.71;69.10;101164.69;5137910;27;19919;-82
2022/08/06 00:57:27;;;;;;;;;;;;;;;13.74;69.07;101165.97;5139873;27;20035;-82
2022/08/06 00:59:53;;;;;;;5.03;1.97;;;;;;;13.70;68.76;101163.09;5139909;27;19922;-82
2022/08/06 01:02:18;;;;;;;;;;;;;;;13.64;69.48;101166.34;5138591;27;20027;-82
2022/08/06 01:04:43;;;;;;;6.37;2.47;;;;;;;13.66;69.89;101169.56;5137898;27;19911;-83
2022/08/06 01:07:09;;;;;;;4.53;1.60;;;;;;;13.72;69.42;101174.50;5138318;27;20031;-84
2022/08/06 01:09:34;;;;;;;5.03;1.27;;;;;;;13.75;69.48;101167.56;5138183;27;20080;-84
2022/08/06 01:11:59;;;;;;;3.65;1.63;;;;;;;13.63;69.33;101181.16;5138121;27;20047;-83
2022/08/06 01:14:25;;;;;;;3.70;1.40;;;;;;;13.62;69.52;101174.09;5137964;27;20050;-84
2022/08/06 01:16:58;;;;;;;4.85;1.45;;;;;;;13.57;70.13;101182.47;5137105;27;20298;-82
2022/08/06 01:19:47;;;;;;;3.42;1.30;;;;;;;13.59;70.08;101174.72;5137510;27;20123;-83
2022/08/06 01:22:32;;;;;;;6.05;1.50;;;;;;;13.57;70.07;101185.19;5137341;27;20070;-83
2022/08/06 01:25:20;;;;;;;3.42;1.45;;;;;;;13.43;70.37;101177.22;5137806;27;20031;-82
2022/08/06 01:27:59;;;;;;;3.88;1.50;;;;;;;13.52;70.32;101180.72;5138101;27;20457;-85
2022/08/06 01:30:31;;;;;;;2.83;1.10;;;;;;;13.48;70.37;101186.06;5137325;27;20415;-84
2022/08/06 01:33:04;;;;;;;5.18;1.42;;;;;;;13.35;70.51;101178.84;5137206;27;20026;-84
2022/08/06 01:35:41;;;;;;;2.58;1.15;;;;;;;13.35;70.68;101181.59;5137021;27;20055;-84
2022/08/06 01:38:11;;;;;;;3.40;1.17;;;;;;;13.37;70.85;101190.28;5137197;27;20102;-83
2022/08/06 01:40:38;;;;;;;4.20;1.20;;;;;;;13.39;70.47;101192.69;5137088;27;20031;-84
2022/08/06 01:43:09;;;;;;;2.95;1.08;;;;;;;13.41;71.06;101191.22;5137463;27;20364;-85
2022/08/06 01:45:37;;;;;;;2.95;1.10;;;;;;;13.46;70.91;101191.06;5136235;27;20027;-83
2022/08/06 01:48:06;;;;;;;3.17;1.05;;;;;;;13.48;70.89;101182.50;5135732;27;20054;-83
2022/08/06 01:50:43;;;;;;;3.42;1.23;;;;;;;13.48;70.72;101196.19;5137075;27;20034;-82
2022/08/06 01:53:14;;;;;;;4.05;1.65;;;;;;;13.42;70.97;101192.03;5136904;27;20027;-83
2022/08/06 01:55:44;;;;;;;3.63;1.30;;;;;;;13.41;70.76;101195.88;5136541;27;20057;-81
2022/08/06 01:58:12;;;;;;;3.58;1.10;;;;;;;13.42;71.05;101192.03;5137196;27;20119;-82
2022/08/06 02:00:42;;;;;;;2.20;1.00;;;;;;;13.35;70.97;101197.19;5136272;27;20027;-81
2022/08/06 02:03:34;;;;;;;3.25;0.95;;;;;;;13.20;71.67;101201.25;5137390;27;20095;-81
2022/08/06 02:06:02;;;;;;;3.75;1.52;;;;;;;13.27;71.90;101209.78;5129642;27;20043;-82
2022/08/06 02:08:31;;;;;;;4.07;1.15;;;;;;;13.28;71.80;101205.94;5136571;27;20031;-81
2022/08/06 02:10:59;;;;;;;3.42;1.00;;;;;;;13.27;71.57;101200.75;5136383;27;20034;-81
2022/08/06 02:13:27;;;;;;;3.17;1.10;;;;;;;13.27;71.81;101198.03;5136435;27;20122;-82
2022/08/06 02:15:53;;;;;;;3.22;0.90;;;;;;;13.25;71.96;101199.16;5136409;27;20084;-81
2022/08/06 02:18:22;;;;;;;2.78;0.98;;;;;;;13.28;71.81;101200.47;5136331;27;20442;-81
2022/08/06 02:20:50;;;;;;;2.42;0.80;;;;;;;13.23;71.86;101209.63;5136203;27;20104;-84
2022/08/06 02:23:19;;;;;;;1.70;0.70;;;;;;;13.23;71.96;101217.03;5136106;27;20373;-83
2022/08/06 02:25:46;;;;;;;3.60;1.45;;;;;;;13.15;71.93;101206.88;5136465;27;20143;-83
2022/08/06 02:28:13;;;;;;;2.00;0.90;;;;;;;13.15;72.14;101209.63;5135918;27;20027;-84
2022/08/06 02:30:41;;;;;;;2.15;1.00;;;;;;;13.17;72.35;101212.81;5136110;27;20054;-84
2022/08/06 02:33:07;;;;;;;4.70;1.83;;;;;;;13.14;72.46;101214.28;5135936;27;20048;-85
2022/08/06 02:35:39;;;;;;;1.98;0.90;;;;;;;13.16;72.20;101216.69;5135825;27;20126;-83
2022/08/06 02:38:11;;;;;;;2.30;1.00;;;;;;;13.10;72.38;101223.44;5136499;27;20038;-84
2022/08/06 02:40:42;;;;;;;6.30;2.83;;;;;;;13.18;72.72;101225.41;5135722;27;20027;-83
2022/08/06 02:43:22;;;;;;;2.03;0.88;;;;;;;13.05;72.49;101218.16;5134748;27;20434;-84
2022/08/06 02:46:00;;;;;;;4.03;1.00;;;;;;;12.99;73.01;101220.25;5135877;27;20404;-83
2022/08/06 02:48:49;;;;;;;1.88;0.85;;;;;;;13.47;71.60;101221.94;5135612;27;20109;-83
2022/08/06 02:51:21;;;;;;;4.82;1.63;;;;;;;13.76;70.78;101215.69;5135971;27;20035;-84
2022/08/06 02:53:57;;;;;;;1.42;0.77;;;;;;;13.83;70.59;101222.28;5135555;27;20023;-85
2022/08/06 02:56:25;;;;;;;3.92;0.90;;;;;;;13.69;71.11;101226.38;5134850;27;20418;-86
2022/08/06 02:58:53;;;;;;;2.33;0.88;;;;;;;13.70;71.50;101219.75;5136273;27;20031;-86
2022/08/06 03:01:23;;;;;;;2.00;0.70;;;;;;;13.58;71.61;101231.38;5135872;27;20023;-86
2022/08/06 03:03:52;;;;;;;3.10;0.80;;;;;;;13.74;71.54;101223.44;5135682;27;20072;-86
2022/08/06 03:06:19;;;;;;;2.88;0.90;;;;;;;13.81;70.82;101223.75;5135540;27;20031;-84
2022/08/06 03:08:45;;;;;;;1.98;0.98;;;;;;;13.65;72.04;101226.22;5135266;27;20152;-83
2022/08/06 03:11:13;;;;;;;2.60;1.00;;;;;;;13.25;72.83;101231.16;5135509;27;20114;-82
2022/08/06 03:13:41;;;;;;;2.55;0.82;;;;;;;13.17;73.16;101234.72;5135167;27;20043;-83
2022/08/06 03:16:07;;;;;;;3.20;1.13;;;;;;;13.01;73.67;101239.88;5135421;27;20406;-82
2022/08/06 03:18:34;;;;;;;;;;;;;;;13.04;73.81;101238.41;5135225;27;20385;-82
2022/08/06 03:21:01;;;;;;;3.67;1.33;;;;;;;13.00;73.86;101235.53;5134908;27;19959;-82
2022/08/06 03:23:29;;;;;;;3.35;1.00;;;;;;;12.86;74.63;101243.91;5134719;27;20061;-85
2022/08/06 03:25:56;;;;;;;2.72;0.90;;;;;;;13.11;73.96;101241.47;5135376;27;20437;-85
2022/08/06 03:28:23;;;;;;;3.05;1.27;;;;;;;13.36;73.27;101243.38;5133879;27;20019;-85
2022/08/06 03:30:49;;;;;;;2.60;0.90;;;;;;;13.52;72.45;101251.88;5135530;27;20453;-85
2022/08/06 03:33:16;;;;;;;2.28;0.88;;;;;;;13.22;73.78;101250.97;5135559;27;20514;-84
2022/08/06 03:35:43;;;;;;;3.03;1.15;;;;;;;13.12;73.79;101251.28;5135160;27;20377;-84
2022/08/06 03:38:09;;;;;;;3.40;1.27;;;;;;;12.86;74.79;101257.56;5134977;27;20055;-83
2022/08/06 03:40:37;;;;;;;3.30;1.20;;;;;;;12.83;74.64;101257.41;5133668;27;20027;-83
2022/08/06 03:43:03;;;;;;;2.75;1.05;;;;;;;12.90;74.75;101257.72;5134861;27;20035;-84
2022/08/06 03:45:30;;;;;;;;;;;;;;;12.72;75.83;101256.13;5134985;27;20026;-83
2022/08/06 03:47:57;;;;;;;3.55;1.00;;;;;;;12.76;75.45;101260.63;5134420;27;20373;-83
2022/08/06 03:50:29;;;;;;;3.58;1.10;;;;;;;12.92;75.36;101260.94;5134287;27;20505;-82
2022/08/06 03:53:00;;;;;;;4.25;1.20;;;;;;;12.92;75.41;101264.47;5134591;27;20023;-82
2022/08/06 03:55:30;;;;;;;2.22;0.90;;;;;;;12.91;75.44;101259.34;5134413;27;20037;-83
2022/08/06 03:58:01;;;;;;;3.78;0.90;;;;;;;12.95;75.27;101266.59;5135023;27;20029;-83
2022/08/06 04:00:32;;;;;;;3.53;1.20;;;;;;;12.79;75.72;101267.41;5134684;27;20031;-84
2022/08/06 04:02:59;;;;;;;2.85;1.17;;;;;;;12.76;75.85;101268.81;5134485;27;20035;-84
2022/08/06 04:05:27;;;;;;;3.22;0.95;;;;;;;12.83;75.69;101271.88;5134954;27;20045;-83
2022/08/06 04:08:07;;;;;;;3.50;0.70;;;;;;;12.77;75.94;101273.19;5134449;27;20038;-84
2022/08/06 04:10:37;;;;;;;2.42;1.02;;;;;;;12.79;76.37;101273.66;5134674;27;20380;-86
2022/08/06 04:13:06;;;;;;;3.72;1.40;;;;;;;12.83;75.79;101274.63;5135995;27;20046;-83
2022/08/06 04:15:31;;;;;;;1.63;0.70;;;;;;;12.83;75.87;101276.56;5134326;27;20023;-83
2022/08/06 04:17:58;;;;;;;7.15;1.40;;;;;;;12.80;75.90;101288.13;5133062;28;20019;-85
2022/08/06 04:20:25;;;;;;;2.22;0.80;;;;;;;12.70;76.23;101285.72;5134413;27;20069;-85
2022/08/06 04:22:51;;;;;;;2.97;1.20;;;;;;;12.71;76.41;101282.66;5134528;27;20432;-84
2022/08/06 04:25:17;;;;;;;2.92;1.20;;;;;;;12.64;76.75;101285.06;5135018;27;20106;-84
2022/08/06 04:27:46;;;;;;;2.70;0.98;;;;;;;12.68;76.76;101290.69;5134644;27;20039;-84
2022/08/06 04:30:12;;;;;;;5.32;0.77;;;;;;;12.72;76.39;101289.72;5134409;27;20027;-84
2022/08/06 04:32:38;;;;;;;;;;;;;;;12.71;76.93;101290.84;5133210;28;20027;-83
2022/08/06 04:35:07;;;;;;;2.80;1.00;;;;;;;12.69;77.01;101284.91;5134079;27;19918;-86
2022/08/06 04:37:33;;;;;;;4.25;1.00;;;;;;;12.76;76.90;101295.34;5134155;27;20026;-87
2022/08/06 04:39:59;;;;;;;1.90;0.80;;;;;;;12.74;76.58;101292.13;5134375;27;20054;-86
2022/08/06 04:42:25;;;;;;;2.25;1.13;;;;;;;12.64;76.95;101293.25;5134007;27;20087;-83
2022/08/06 04:44:51;;;;;;;;;;;;;;;12.64;77.34;101299.53;5134509;27;20146;-84
2022/08/06 04:47:18;;;;;;;3.07;1.00;;;;;;;12.64;76.99;101305.00;5134197;27;19915;-82
2022/08/06 04:49:43;;;;;;;;;;;;;;;12.70;77.61;101302.91;5134444;27;20445;-82
2022/08/06 04:52:08;;;;;;;2.23;0.90;;;;;;;12.71;77.09;101299.03;5133775;27;19931;-83
2022/08/06 04:54:33;;;;;;;2.40;0.87;;;;;;;12.76;77.16;101301.63;5133848;27;20275;-82
2022/08/06 04:56:59;;;;;;;3.33;1.10;;;;;;;12.60;77.83;101300.50;5133778;27;20718;-83
2022/08/06 04:59:24;;;;;;;2.87;1.10;;;;;;;12.73;77.57;101305.00;5133635;27;20410;-82
2022/08/06 05:01:49;;;;;;;2.65;1.08;;;;;;;12.76;77.31;101307.06;5133727;27;20253;-83
2022/08/06 05:04:15;;;;;;;1.90;0.80;;;;;;;12.76;77.50;101306.28;5133455;28;20050;-83
2022/08/06 05:06:50;;;;;;;2.17;1.10;;;;;;;12.80;77.25;101307.28;5133591;27;20802;-85
2022/08/06 05:09:21;;;;;;;2.90;0.95;;;;;;;12.82;77.37;101316.75;5132383;28;20038;-84
2022/08/06 05:12:12;;;;;;;4.43;1.02;;;;;;;12.83;77.07;101320.28;5132061;28;20530;-85
2022/08/06 05:14:53;;;;;;;5.35;1.15;;;;;;;12.90;77.02;101318.66;5133738;28;20031;-83
2022/08/06 05:17:32;;;;;;;2.88;1.10;;;;;;;12.94;76.89;101319.66;5133915;27;20091;-85
2022/08/06 05:20:01;;;;;;;6.03;1.27;;;;;;;12.91;76.90;101323.00;5135087;27;20038;-84
2022/08/06 05:22:27;;;;;;;6.30;1.30;;;;;;;12.98;76.86;101319.00;5137114;27;20034;-83
2022/08/06 05:24:52;;;;;;;;;;;;;;;12.93;77.17;101317.22;5137399;27;20045;-83
2022/08/06 05:27:18;;;;;;;2.92;1.20;;;;;;;12.98;77.13;101325.28;5135894;27;19920;-84
2022/08/06 05:29:43;;;;;;;3.20;1.10;;;;;;;12.93;77.13;101330.88;5137180;27;20019;-84
2022/08/06 05:32:09;;;;;;;6.13;1.58;;;;;;;12.97;76.95;101329.16;5136942;27;20027;-82
2022/08/06 05:34:35;;;;;;;3.13;1.10;;;;;;;13.01;77.05;101332.84;5136848;27;20058;-82
2022/08/06 05:37:00;;;;;;;4.63;1.17;;;;;;;13.01;76.91;101334.75;5136691;27;20105;-82
2022/08/06 05:39:26;;;;;;;2.58;1.17;;;;;;;13.01;76.74;101338.31;5136563;27;20038;-82
2022/08/06 05:41:51;;;;;;;3.97;1.13;;;;;;;13.06;76.80;101335.41;5137102;27;20027;-82
2022/08/06 05:44:17;;;;;;;4.57;1.80;;;;;;;13.13;76.83;101337.66;5136615;27;20042;-83
2022/08/06 05:46:52;;;;;;;3.63;1.40;;;;;;;13.19;76.75;101345.41;5137023;27;20031;-83
2022/08/06 05:49:22;;;;;;;4.28;1.45;;;;;;;13.27;76.23;101343.81;5135247;27;20050;-83
2022/08/06 05:52:12;;;;;;;4.68;1.38;;;;;;;13.61;74.62;101353.09;5135476;27;20407;-84
2022/08/06 05:54:52;;;;;;;4.32;1.60;;;;;;;13.62;75.56;101354.72;5136661;27;20104;-82
2022/08/06 05:57:25;;;;;;;5.40;1.45;;;;;;;13.71;74.26;101352.75;5136610;27;20434;-82
2022/08/06 05:59:56;;;;;;;4.85;1.30;;;;;;;13.61;74.70;101353.91;5136639;27;20038;-84
2022/08/06 06:02:23;;;;;;;6.10;1.70;;;;;;;13.65;74.74;101349.38;5136707;27;20028;-84
2022/08/06 06:04:49;;;;;;;10.95;2.45;;;;;;;13.81;74.52;101355.94;5135983;27;20083;-85
2022/08/06 06:07:15;;;;;;;;;;;;;;;13.79;74.67;101354.66;5136871;27;20546;-81
2022/08/06 06:09:42;;;;;;;4.90;1.50;;;;;;;13.80;74.76;101359.00;5136414;27;19911;-84
2022/08/06 06:12:09;;;;;;;5.85;1.70;;;;;;;14.06;74.16;101358.91;5136127;27;20126;-85
2022/08/06 06:14:41;;;;;;;5.00;1.90;;;;;;;13.98;73.92;101355.09;5136484;27;20027;-85
2022/08/06 06:17:26;;;;;;;5.78;1.48;;;;;;;14.06;74.71;101359.72;5136056;27;20407;-84
2022/08/06 06:20:07;;;;;;;3.03;1.40;;;;;;;14.20;74.86;101364.19;5136289;27;20034;-83
2022/08/06 06:22:57;;;;;;;3.40;1.40;;;;;;;14.28;73.36;101360.63;5136730;27;20066;-81
2022/08/06 06:25:31;;;;;;;2.95;1.38;;;;;;;14.36;73.22;101359.75;5136423;27;20427;-81
2022/08/06 06:28:14;;;;;;;2.97;1.17;;;;;;;14.47;72.93;101360.22;5136338;27;20067;-77
2022/08/06 06:30:53;;;;;;;2.53;1.10;;;;;;;14.69;72.43;101360.75;5134238;27;20420;-77
2022/08/06 06:33:27;;;;;;;3.47;1.40;;;;;;;14.86;72.54;101362.56;5135497;27;20035;-77
2022/08/06 06:35:59;;;;;;;6.32;1.65;;;;;;;14.93;70.88;101356.53;5135196;27;20138;-77
2022/08/06 06:38:38;;;;;;;4.97;2.28;;;;;;;15.62;70.48;101356.78;5135289;27;20461;-77
2022/08/06 06:41:13;;;;;;;3.28;1.30;;;;;;;16.60;64.49;101359.63;5135046;27;20465;-77
2022/08/06 06:44:01;;;;;;;3.10;1.20;;;;;;;17.45;62.51;101366.88;5135594;27;20487;-77
2022/08/06 06:46:33;;;;;;;3.25;1.35;;;;;;;18.36;59.29;101369.69;5135467;27;20053;-77
2022/08/06 06:49:06;;;;;;;3.03;1.10;;;;;;;19.69;55.22;101363.13;5135475;27;20059;-77
2022/08/06 06:51:41;;;;;;;4.57;1.45;;;;;;;19.80;54.51;101359.38;5135317;27;20031;-77
2022/08/06 06:54:10;;;;;;;3.67;1.55;;;;;;;20.01;53.69;101372.81;5134893;27;20532;-77
2022/08/06 06:56:42;;;;;;;2.63;1.00;;;;;;;20.47;52.34;101371.97;5135193;27;20050;-77
2022/08/06 06:59:14;;;;;;;3.05;0.90;;;;;;;20.79;51.40;101369.69;5134801;27;20030;-77
2022/08/06 07:01:40;;;;;;;2.83;1.00;;;;;;;20.75;51.30;101371.63;5133724;27;20388;-77
2022/08/06 07:04:13;;;;;;;4.20;1.05;;;;;;;20.68;49.73;101370.34;5134666;27;20035;-77
2022/08/06 07:06:40;;;;;;;3.22;1.15;;;;;;;20.16;52.23;101376.63;5134540;27;20030;-76
2022/08/06 07:09:06;;;;;;;2.90;0.70;;;;;;;19.96;52.96;101377.81;5135103;27;20114;-76
2022/08/06 07:11:33;;;;;;;2.35;0.85;;;;;;;20.08;51.62;101372.91;5134635;27;20027;-76
2022/08/06 07:13:59;;;;;;;2.55;0.90;;;;;;;20.01;51.41;101386.63;5133299;27;20468;-76
2022/08/06 07:16:26;;;;;;;0.93;0.57;;;;;;;19.73;52.01;101394.38;5134449;27;20034;-76
2022/08/06 07:18:53;;;;;;;1.35;0.68;;;;;;;19.93;51.19;101386.84;5134714;27;20055;-76
2022/08/06 07:21:19;;;;;;;1.92;0.80;;;;;;;19.31;54.60;101392.34;5134296;27;20115;-76
2022/08/06 07:23:48;;;;;;;1.90;0.50;;;;;;;18.81;53.78;101402.31;5133316;27;20138;-76
2022/08/06 07:26:18;;;;;;;2.03;0.60;;;;;;;18.55;56.21;101397.34;5134484;27;20433;-76
2022/08/06 07:28:44;;;;;;;0.93;0.70;;;;;;;17.95;55.88;101398.56;5134326;27;20061;-75
2022/08/06 07:31:11;;;;;;;1.70;0.70;;;;;;;17.59;58.12;101402.28;5134367;27;20031;-75
2022/08/06 07:33:39;;;;;;;1.58;0.80;;;;;;;17.68;57.26;101398.25;5134157;27;20027;-75
2022/08/06 07:36:06;;;;;;;1.65;0.60;;;;;;;16.99;58.11;101398.59;5134192;27;20134;-77
2022/08/06 07:38:33;;;;;;;3.33;0.57;;;;;;;17.20;58.78;101403.91;5134289;27;20473;-74
2022/08/06 07:41:03;;;;;;;2.03;0.70;;;;;;;17.19;57.36;101402.31;5132774;27;20031;-76
2022/08/06 07:43:33;;;;;;;3.33;0.70;;;;;;;17.17;58.12;101401.88;5133196;27;20038;-77
2022/08/06 07:46:02;;;;;;;3.90;0.80;;;;;;;16.82;58.02;101405.13;5135233;27;20031;-82
2022/08/06 07:48:35;;;;;;;2.80;1.00;;;;;;;17.18;58.26;101406.22;5134067;27;20446;-81
2022/08/06 07:51:02;;;;;;;2.78;1.02;;;;;;;17.08;57.93;101408.28;5134294;27;20084;-80
2022/08/06 07:53:30;;;;;;;2.13;0.52;;;;;;;17.15;57.01;101402.22;5134056;27;20474;-80
2022/08/06 07:55:56;;;;;;;2.13;0.80;;;;;;;17.31;56.74;101411.34;5134384;27;20507;-82
2022/08/06 07:58:22;;;;;;;;;;;;;;;17.33;55.78;101402.72;5133352;27;20114;-79
2022/08/06 08:00:48;;;;;;;1.27;0.55;;;;;;;17.47;55.91;101408.66;5134287;27;19915;-82
2022/08/06 08:06:17;;;;;;;2.28;0.60;;;;;;;17.54;55.30;101403.34;5133666;27;20122;-80
2022/08/06 08:08:45;;;;;;;3.63;0.70;;;;;;;17.84;51.43;101405.75;5134085;27;20376;-79
2022/08/06 08:11:13;;;;;;;1.25;0.50;;;;;;;17.92;51.96;101402.03;5133343;27;20027;-80
2022/08/06 08:13:38;;;;;;;1.80;0.63;;;;;;;17.82;52.58;101408.88;5133830;27;20100;-79
2022/08/06 08:16:04;;;;;;;;;;;;;;;17.87;53.56;101411.34;5134387;27;20419;-80
2022/08/06 08:18:31;;;;;;;1.60;0.50;;;;;;;17.89;53.81;101411.00;5133514;27;19907;-80
2022/08/06 08:20:58;;;;;;;1.50;0.60;;;;;;;18.21;53.05;101409.88;5133697;27;20035;-81
2022/08/06 08:23:24;;;;;;;1.67;0.63;;;;;;;17.80;54.17;101411.16;5133856;27;20166;-80
2022/08/06 08:25:50;;;;;;;1.27;0.40;;;;;;;17.89;53.81;101408.25;5133671;27;20042;-79
2022/08/06 08:28:15;;;;;;;;;;;;;;;17.77;54.41;101405.53;5133965;27;20070;-79
2022/08/06 08:30:42;;;;;;;1.50;0.57;;;;;;;17.93;54.31;101406.38;5133503;27;19933;-80
2022/08/06 08:33:08;;;;;;;2.35;0.60;;;;;;;18.24;52.55;101409.16;5133744;27;20030;-79
2022/08/06 08:35:34;;;;;;;1.80;0.47;;;;;;;18.14;50.75;101409.72;5132527;28;20023;-80
2022/08/06 08:37:59;;;;;;;;;;;;;;;18.11;51.39;101410.41;5134269;27;20351;-80
2022/08/06 08:40:26;;;;;;;1.07;0.40;;;;;;;18.25;50.15;101402.50;5133596;27;19991;-80
2022/08/06 08:42:53;;;;;;;0.63;0.40;;;;;;;18.19;49.92;101411.41;5132143;28;20299;-80
2022/08/06 08:45:19;;;;;;;0.73;0.40;;;;;;;18.09;48.19;101409.16;5132504;28;20019;-82
2022/08/06 08:47:50;;;;;;;0.20;0.20;;;;;;;18.04;48.55;101404.72;5132275;28;20454;-82
2022/08/06 08:50:19;;;;;;;0.75;0.40;;;;;;;18.22;48.50;101407.94;5132535;28;20035;-80
2022/08/06 08:52:48;;;;;;;1.70;0.60;;;;;;;18.18;47.92;101405.09;5132249;28;20453;-80
2022/08/06 08:55:16;;;;;;;0.50;0.40;;;;;;;18.50;46.05;101407.84;5136524;27;20039;-79
2022/08/06 08:57:42;;;;;;;0.93;0.40;;;;;;;18.68;44.88;101398.06;5139270;27;20027;-82
2022/08/06 09:00:08;;;;;;;0.77;0.35;;;;;;;18.68;44.15;101394.50;5137836;27;20035;-81
2022/08/06 09:02:37;;;;;;;0.63;0.38;;;;;;;18.49;44.15;101404.28;5139804;27;20470;-80
2022/08/06 09:05:02;;;;;;;0.80;0.30;;;;;;;18.52;44.37;101406.31;5137864;27;20039;-80
2022/08/06 09:07:28;;;;;;;1.35;0.45;;;;;;;18.76;43.92;101412.81;5138412;27;20072;-80
2022/08/06 09:09:55;;;;;;;1.38;0.43;;;;;;;18.71;44.34;101405.63;5136048;27;20030;-79
2022/08/06 09:12:22;;;;;;;0.70;0.30;;;;;;;18.51;45.43;101418.53;5135782;27;20130;-80
2022/08/06 09:14:47;;;;;;;0.98;0.30;;;;;;;18.78;45.79;101405.78;5140966;27;20451;-81
2022/08/06 09:17:12;;;;;;;1.60;0.63;;;;;;;18.67;44.79;101407.50;5137476;27;20059;-80
2022/08/06 09:19:38;;;;;;;;;;;;;;;18.59;45.63;101406.50;5137798;27;20113;-80
2022/08/06 09:22:03;;;;;;;2.33;0.30;;;;;;;18.73;45.17;101405.25;5137001;27;19907;-79
2022/08/06 09:24:29;;;;;;;;;;;;;;;18.70;45.27;101417.81;5137209;27;20253;-80
2022/08/06 09:27:08;;;;;;;1.70;0.50;;;;;;;18.87;48.12;101414.66;5136807;27;19914;-80
2022/08/06 09:29:34;;;;;;;1.40;0.40;;;;;;;19.06;46.03;101418.63;5136844;27;20031;-80
2022/08/06 09:32:04;;;;;;;0.30;0.30;;;;;;;19.04;44.10;101407.94;5137429;27;20039;-80
2022/08/06 09:34:38;;;;;;;0.55;0.30;;;;;;;18.75;46.16;101423.06;5136794;27;20055;-80
2022/08/06 09:37:04;;;;;;;1.52;0.50;;;;;;;18.63;46.63;101420.38;5136684;27;20041;-80
2022/08/06 09:39:35;;;;;;;3.53;0.73;;;;;;;18.71;47.02;101419.41;5136846;27;20065;-79
2022/08/06 09:42:01;;;;;;;0.43;0.40;;;;;;;18.52;46.36;101424.84;5136731;27;20080;-80
2022/08/06 09:44:27;;;;;;;2.90;0.60;;;;;;;18.71;46.31;101426.88;5135398;27;20443;-80
2022/08/06 09:46:53;;;;;;;0.40;0.40;;;;;;;18.66;46.45;101429.94;5136636;27;20023;-80
2022/08/06 09:49:19;;;;;;;1.92;0.70;;;;;;;18.68;46.75;101425.66;5137083;27;20196;-79
2022/08/06 09:51:45;;;;;;;1.13;0.52;;;;;;;18.60;46.40;101426.59;5139400;27;20023;-80
2022/08/06 09:54:15;;;;;;;0.85;0.40;;;;;;;18.31;46.57;101425.91;5140702;27;20043;-79
2022/08/06 09:56:41;;;;;;;2.63;0.73;;;;;;;18.30;46.29;101423.47;5142384;27;20481;-79
2022/08/06 09:59:08;;;;;;;1.13;0.60;;;;;;;18.28;46.85;101432.13;5135947;27;20445;-81
2022/08/06 10:01:40;;;;;;;2.08;0.57;;;;;;;18.41;47.56;101424.56;5136816;27;20089;-81
2022/08/06 10:04:06;;;;;;;1.75;0.70;;;;;;;18.87;46.87;101417.44;5136835;27;20434;-80
2022/08/06 10:06:32;;;;;;;1.63;0.60;;;;;;;19.34;44.65;101424.78;5137694;27;20031;-80
2022/08/06 10:09:11;;;;;;;2.35;0.60;;;;;;;19.02;44.74;101415.00;5136904;27;20238;-81
2022/08/06 10:11:39;;;;;;;1.83;0.90;;;;;;;19.47;43.65;101420.69;5136235;27;20042;-80
2022/08/06 10:14:05;;;;;;;1.17;0.50;;;;;;;19.65;44.12;101425.78;5136662;27;20156;-80
2022/08/06 10:16:31;;;;;;;0.85;0.40;;;;;;;19.51;42.75;101416.06;5137340;27;20077;-80
2022/08/06 10:18:58;;;;;;;0.82;0.57;;;;;;;19.47;43.80;101420.69;5136480;27;20542;-80
2022/08/06 10:21:26;;;;;;;2.03;0.57;;;;;;;19.73;43.88;101422.03;5136233;27;20035;-82
2022/08/06 10:23:55;;;;;;;1.00;0.55;;;;;;;19.77;43.83;101426.44;5143677;27;20027;-81
2022/08/06 10:26:32;;;;;;;1.75;0.63;;;;;;;19.81;42.66;101416.25;5144615;27;20362;-80
2022/08/06 10:29:06;;;;;;;1.30;0.60;;;;;;;19.76;43.09;101413.00;5143125;27;20031;-80
2022/08/06 10:31:34;;;;;;;1.35;0.70;;;;;;;20.48;42.05;101407.56;5144676;27;20063;-81
2022/08/06 10:34:10;;;;;;;1.55;0.70;;;;;;;20.44;41.40;101417.78;5145589;27;20023;-80
2022/08/06 10:36:44;;;;;;;0.90;0.50;;;;;;;19.98;42.09;101412.22;5147656;27;20027;-81
2022/08/06 10:39:13;;;;;;;1.40;0.77;;;;;;;19.97;41.94;101410.63;5121311;27;20039;-81
2022/08/06 10:41:40;;;;;;;0.65;0.50;;;;;;;19.84;42.89;101400.94;5135630;27;20031;-81
2022/08/06 10:44:07;;;;;;;2.45;1.13;;;;;;;19.99;43.42;101405.56;5135672;27;20035;-80
2022/08/06 10:46:33;;;;;;;1.02;0.60;;;;;;;20.46;43.54;101400.81;5135957;27;20035;-80
2022/08/06 10:49:00;;;;;;;1.13;0.60;;;;;;;20.78;41.38;101409.63;5135923;27;20050;-81
2022/08/06 10:51:26;;;;;;;1.42;0.57;;;;;;;20.25;41.82;101401.25;5135886;27;20024;-81
2022/08/06 10:53:52;;;;;;;2.72;0.65;;;;;;;20.02;41.90;101395.72;5135139;27;20040;-80
2022/08/06 10:56:18;;;;;;;2.42;0.80;;;;;;;19.77;44.01;101395.25;5134341;27;20112;-81
2022/08/06 10:58:43;;;;;;;;;;;;;;;19.78;44.23;101394.09;5135638;27;20031;-81
2022/08/06 11:01:28;;;;;;;2.92;0.77;;;;;;;19.88;42.18;101396.25;5135507;27;19911;-82
2022/08/06 11:04:05;;;;;;;1.08;0.47;;;;;;;20.27;41.31;101401.66;5135215;27;20033;-81
2022/08/06 11:06:49;;;;;;;0.70;0.50;;;;;;;20.29;41.27;101393.78;5135552;27;20114;-81
2022/08/06 11:09:33;;;;;;;1.02;0.50;;;;;;;20.85;40.59;101388.41;5135147;27;20034;-82
2022/08/06 11:12:21;;;;;;;1.52;0.50;;;;;;;20.76;40.21;101384.28;5135401;27;20040;-82
2022/08/06 11:14:47;;;;;;;2.22;0.68;;;;;;;21.12;39.80;101380.84;5135198;27;20031;-82
2022/08/06 11:17:12;;;;;;;0.93;0.60;;;;;;;20.82;40.87;101380.00;5134797;27;20097;-82
2022/08/06 11:19:43;;;;;;;0.88;0.50;;;;;;;20.64;41.65;101388.06;5134663;27;20168;-79
2022/08/06 11:22:36;;;;;;;1.48;0.60;;;;;;;21.27;40.88;101377.09;5134924;27;20031;-79
2022/08/06 11:25:04;;;;;;;1.80;0.57;;;;;;;20.92;41.99;101380.19;5135085;27;20027;-80
2022/08/06 11:27:51;;;;;;;1.05;0.40;;;;;;;20.30;41.50;101389.84;5134859;27;20065;-81
2022/08/06 11:30:18;;;;;;;0.88;0.57;;;;;;;20.18;40.53;101384.53;5134451;27;20054;-82
2022/08/06 11:32:44;;;;;;;0.55;0.40;;;;;;;20.31;39.80;101381.19;5134517;27;20058;-79
2022/08/06 11:35:34;;;;;;;2.00;0.55;;;;;;;21.22;38.63;101382.94;5134490;27;20027;-82
2022/08/06 11:38:04;;;;;;;0.73;0.52;;;;;;;20.81;38.94;101370.91;5133378;27;20064;-81
2022/08/06 11:40:54;;;;;;;2.47;0.50;;;;;;;21.40;38.81;101379.63;5134943;27;20031;-82
2022/08/06 11:43:53;;;;;;;1.23;0.50;;;;;;;21.48;38.75;101371.00;5133231;27;20034;-82